sensor_id;sensor_type;location;lat;lon;timestamp;P1;durP1;ratioP1;P2;durP2;ratioP2
52041;SDS011;38052;45.944;13.624;2023-05-14T00:00:49;6.97;;;1.40;;
52041;SDS011;38052;45.944;13.624;2023-05-14T00:03:16;1.85;;;0.90;;
52041;SDS011;38052;45.944;13.624;2023-05-14T00:05:43;2.15;;;0.85;;
52041;SDS011;38052;45.944;13.624;2023-05-14T00:08:09;2.50;;;0.80;;
52041;SDS011;38052;45.944;13.624;2023-05-14T00:10:35;3.25;;;0.93;;
52041;SDS011;38052;45.944;13.624;2023-05-14T00:13:02;5.93;;;0.70;;
52041;SDS011;38052;45.944;13.624;2023-05-14T00:15:28;3.60;;;0.50;;
52041;SDS011;38052;45.944;13.624;2023-05-14T00:17:54;2.35;;;0.52;;
52041;SDS011;38052;45.944;13.624;2023-05-14T00:20:21;1.95;;;0.98;;
52041;SDS011;38052;45.944;13.624;2023-05-14T00:22:48;1.98;;;0.40;;
52041;SDS011;38052;45.944;13.624;2023-05-14T00:25:14;2.13;;;0.45;;
52041;SDS011;38052;45.944;13.624;2023-05-14T00:27:41;3.05;;;0.77;;
52041;SDS011;38052;45.944;13.624;2023-05-14T00:30:07;1.20;;;0.38;;
52041;SDS011;38052;45.944;13.624;2023-05-14T00:32:34;0.80;;;0.47;;
52041;SDS011;38052;45.944;13.624;2023-05-14T00:35:00;1.52;;;0.50;;
52041;SDS011;38052;45.944;13.624;2023-05-14T00:37:28;1.58;;;0.60;;
52041;SDS011;38052;45.944;13.624;2023-05-14T00:39:54;0.93;;;0.82;;
52041;SDS011;38052;45.944;13.624;2023-05-14T00:42:20;1.48;;;0.50;;
52041;SDS011;38052;45.944;13.624;2023-05-14T00:44:46;1.58;;;0.75;;
52041;SDS011;38052;45.944;13.624;2023-05-14T00:47:13;0.93;;;0.50;;
52041;SDS011;38052;45.944;13.624;2023-05-14T00:49:39;1.92;;;0.40;;
52041;SDS011;38052;45.944;13.624;2023-05-14T00:52:06;1.02;;;0.55;;
52041;SDS011;38052;45.944;13.624;2023-05-14T00:54:32;1.98;;;0.82;;
52041;SDS011;38052;45.944;13.624;2023-05-14T00:56:59;1.17;;;0.40;;
52041;SDS011;38052;45.944;13.624;2023-05-14T00:59:26;2.00;;;0.70;;
52041;SDS011;38052;45.944;13.624;2023-05-14T01:01:52;2.33;;;0.85;;
52041;SDS011;38052;45.944;13.624;2023-05-14T01:04:19;2.28;;;0.77;;
52041;SDS011;38052;45.944;13.624;2023-05-14T01:09:45;3.42;;;0.95;;
52041;SDS011;38052;45.944;13.624;2023-05-14T01:14:42;3.88;;;1.50;;
52041;SDS011;38052;45.944;13.624;2023-05-14T01:17:10;1.38;;;0.77;;
52041;SDS011;38052;45.944;13.624;2023-05-14T01:22:03;1.75;;;0.50;;
52041;SDS011;38052;45.944;13.624;2023-05-14T01:24:30;5.47;;;1.02;;
52041;SDS011;38052;45.944;13.624;2023-05-14T01:26:58;4.55;;;0.47;;
52041;SDS011;38052;45.944;13.624;2023-05-14T01:29:26;1.13;;;0.90;;
52041;SDS011;38052;45.944;13.624;2023-05-14T01:31:54;1.67;;;0.50;;
52041;SDS011;38052;45.944;13.624;2023-05-14T01:34:21;3.35;;;0.70;;
52041;SDS011;38052;45.944;13.624;2023-05-14T01:36:49;3.75;;;0.90;;
52041;SDS011;38052;45.944;13.624;2023-05-14T01:39:16;1.67;;;0.65;;
52041;SDS011;38052;45.944;13.624;2023-05-14T01:41:43;1.08;;;0.52;;
52041;SDS011;38052;45.944;13.624;2023-05-14T01:44:10;2.10;;;0.80;;
52041;SDS011;38052;45.944;13.624;2023-05-14T01:46:37;1.38;;;0.63;;
52041;SDS011;38052;45.944;13.624;2023-05-14T01:49:03;2.58;;;0.73;;
52041;SDS011;38052;45.944;13.624;2023-05-14T01:51:30;2.28;;;0.70;;
52041;SDS011;38052;45.944;13.624;2023-05-14T01:53:56;2.15;;;0.95;;
52041;SDS011;38052;45.944;13.624;2023-05-14T01:56:22;3.08;;;0.75;;
52041;SDS011;38052;45.944;13.624;2023-05-14T01:58:49;1.33;;;0.52;;
52041;SDS011;38052;45.944;13.624;2023-05-14T02:01:16;3.25;;;0.75;;
52041;SDS011;38052;45.944;13.624;2023-05-14T02:03:42;3.47;;;0.90;;
52041;SDS011;38052;45.944;13.624;2023-05-14T02:06:08;2.92;;;1.08;;
52041;SDS011;38052;45.944;13.624;2023-05-14T02:08:35;2.38;;;0.60;;
52041;SDS011;38052;45.944;13.624;2023-05-14T02:11:01;3.67;;;0.98;;
52041;SDS011;38052;45.944;13.624;2023-05-14T02:13:27;3.75;;;1.00;;
52041;SDS011;38052;45.944;13.624;2023-05-14T02:15:54;1.10;;;0.60;;
52041;SDS011;38052;45.944;13.624;2023-05-14T02:18:21;3.25;;;0.88;;
52041;SDS011;38052;45.944;13.624;2023-05-14T02:20:47;1.75;;;0.77;;
52041;SDS011;38052;45.944;13.624;2023-05-14T02:23:14;1.50;;;0.77;;
52041;SDS011;38052;45.944;13.624;2023-05-14T02:25:40;2.38;;;1.23;;
52041;SDS011;38052;45.944;13.624;2023-05-14T02:28:07;2.10;;;1.00;;
52041;SDS011;38052;45.944;13.624;2023-05-14T02:30:33;2.30;;;1.10;;
52041;SDS011;38052;45.944;13.624;2023-05-14T02:33:00;1.77;;;1.00;;
52041;SDS011;38052;45.944;13.624;2023-05-14T02:35:26;2.08;;;1.08;;
52041;SDS011;38052;45.944;13.624;2023-05-14T02:37:53;3.97;;;1.00;;
52041;SDS011;38052;45.944;13.624;2023-05-14T02:40:20;1.55;;;1.02;;
52041;SDS011;38052;45.944;13.624;2023-05-14T02:42:46;2.10;;;1.00;;
52041;SDS011;38052;45.944;13.624;2023-05-14T02:45:12;2.05;;;1.10;;
52041;SDS011;38052;45.944;13.624;2023-05-14T02:47:38;4.60;;;1.50;;
52041;SDS011;38052;45.944;13.624;2023-05-14T02:50:05;1.80;;;0.90;;
52041;SDS011;38052;45.944;13.624;2023-05-14T02:52:31;2.55;;;1.35;;
52041;SDS011;38052;45.944;13.624;2023-05-14T02:54:57;2.45;;;0.82;;
52041;SDS011;38052;45.944;13.624;2023-05-14T02:57:24;2.33;;;1.50;;
52041;SDS011;38052;45.944;13.624;2023-05-14T02:59:50;3.35;;;1.42;;
52041;SDS011;38052;45.944;13.624;2023-05-14T03:02:16;4.03;;;1.67;;
52041;SDS011;38052;45.944;13.624;2023-05-14T03:04:43;2.47;;;1.30;;
52041;SDS011;38052;45.944;13.624;2023-05-14T03:07:09;1.88;;;1.08;;
52041;SDS011;38052;45.944;13.624;2023-05-14T03:09:36;3.00;;;1.27;;
52041;SDS011;38052;45.944;13.624;2023-05-14T03:12:02;5.47;;;1.98;;
52041;SDS011;38052;45.944;13.624;2023-05-14T03:14:29;2.78;;;1.58;;
52041;SDS011;38052;45.944;13.624;2023-05-14T03:16:55;4.30;;;1.33;;
52041;SDS011;38052;45.944;13.624;2023-05-14T03:19:22;3.25;;;1.50;;
52041;SDS011;38052;45.944;13.624;2023-05-14T03:21:48;2.17;;;1.20;;
52041;SDS011;38052;45.944;13.624;2023-05-14T03:24:15;4.03;;;1.70;;
52041;SDS011;38052;45.944;13.624;2023-05-14T03:26:41;2.03;;;1.48;;
52041;SDS011;38052;45.944;13.624;2023-05-14T03:29:08;1.90;;;1.30;;
52041;SDS011;38052;45.944;13.624;2023-05-14T03:31:34;3.28;;;1.42;;
52041;SDS011;38052;45.944;13.624;2023-05-14T03:34:01;5.68;;;2.20;;
52041;SDS011;38052;45.944;13.624;2023-05-14T03:36:27;3.63;;;1.92;;
52041;SDS011;38052;45.944;13.624;2023-05-14T03:38:54;3.75;;;1.50;;
52041;SDS011;38052;45.944;13.624;2023-05-14T03:41:20;3.20;;;1.73;;
52041;SDS011;38052;45.944;13.624;2023-05-14T03:43:48;4.90;;;1.60;;
52041;SDS011;38052;45.944;13.624;2023-05-14T03:46:14;2.55;;;1.30;;
52041;SDS011;38052;45.944;13.624;2023-05-14T03:48:41;2.10;;;1.67;;
52041;SDS011;38052;45.944;13.624;2023-05-14T03:51:07;3.05;;;1.42;;
52041;SDS011;38052;45.944;13.624;2023-05-14T03:53:34;3.80;;;2.00;;
52041;SDS011;38052;45.944;13.624;2023-05-14T03:56:00;2.72;;;1.73;;
52041;SDS011;38052;45.944;13.624;2023-05-14T03:58:27;2.72;;;1.48;;
52041;SDS011;38052;45.944;13.624;2023-05-14T04:00:53;1.70;;;1.33;;
52041;SDS011;38052;45.944;13.624;2023-05-14T04:03:20;2.88;;;1.80;;
52041;SDS011;38052;45.944;13.624;2023-05-14T04:05:50;4.82;;;1.58;;
52041;SDS011;38052;45.944;13.624;2023-05-14T04:08:16;2.50;;;1.60;;
52041;SDS011;38052;45.944;13.624;2023-05-14T04:10:42;3.03;;;1.60;;
52041;SDS011;38052;45.944;13.624;2023-05-14T04:13:08;3.60;;;1.50;;
52041;SDS011;38052;45.944;13.624;2023-05-14T04:15:35;6.15;;;1.80;;
52041;SDS011;38052;45.944;13.624;2023-05-14T04:18:03;2.40;;;1.23;;
52041;SDS011;38052;45.944;13.624;2023-05-14T04:20:30;3.45;;;1.70;;
52041;SDS011;38052;45.944;13.624;2023-05-14T04:22:56;3.58;;;1.85;;
52041;SDS011;38052;45.944;13.624;2023-05-14T04:25:22;5.65;;;1.98;;
52041;SDS011;38052;45.944;13.624;2023-05-14T04:27:49;2.85;;;1.05;;
52041;SDS011;38052;45.944;13.624;2023-05-14T04:30:16;2.95;;;1.60;;
52041;SDS011;38052;45.944;13.624;2023-05-14T04:32:42;2.72;;;1.42;;
52041;SDS011;38052;45.944;13.624;2023-05-14T04:35:09;4.20;;;1.58;;
52041;SDS011;38052;45.944;13.624;2023-05-14T04:37:35;3.30;;;1.45;;
52041;SDS011;38052;45.944;13.624;2023-05-14T04:40:02;5.93;;;1.60;;
52041;SDS011;38052;45.944;13.624;2023-05-14T04:42:29;2.08;;;1.30;;
52041;SDS011;38052;45.944;13.624;2023-05-14T04:44:55;2.05;;;1.00;;
52041;SDS011;38052;45.944;13.624;2023-05-14T04:47:22;2.08;;;1.20;;
52041;SDS011;38052;45.944;13.624;2023-05-14T04:49:48;3.63;;;1.50;;
52041;SDS011;38052;45.944;13.624;2023-05-14T04:52:14;2.70;;;1.58;;
52041;SDS011;38052;45.944;13.624;2023-05-14T04:54:40;1.27;;;0.70;;
52041;SDS011;38052;45.944;13.624;2023-05-14T04:57:07;2.65;;;0.90;;
52041;SDS011;38052;45.944;13.624;2023-05-14T04:59:34;2.83;;;0.98;;
52041;SDS011;38052;45.944;13.624;2023-05-14T05:02:00;2.28;;;1.00;;
52041;SDS011;38052;45.944;13.624;2023-05-14T05:04:27;1.98;;;0.90;;
52041;SDS011;38052;45.944;13.624;2023-05-14T05:06:53;2.67;;;1.00;;
52041;SDS011;38052;45.944;13.624;2023-05-14T05:09:20;2.92;;;0.93;;
52041;SDS011;38052;45.944;13.624;2023-05-14T05:11:46;4.57;;;1.08;;
52041;SDS011;38052;45.944;13.624;2023-05-14T05:14:13;2.28;;;1.13;;
52041;SDS011;38052;45.944;13.624;2023-05-14T05:16:39;0.98;;;0.32;;
52041;SDS011;38052;45.944;13.624;2023-05-14T05:19:06;1.52;;;0.60;;
52041;SDS011;38052;45.944;13.624;2023-05-14T05:21:32;0.80;;;0.45;;
52041;SDS011;38052;45.944;13.624;2023-05-14T05:23:59;2.00;;;0.90;;
52041;SDS011;38052;45.944;13.624;2023-05-14T05:26:25;1.33;;;0.90;;
52041;SDS011;38052;45.944;13.624;2023-05-14T05:28:52;1.08;;;0.60;;
52041;SDS011;38052;45.944;13.624;2023-05-14T05:31:18;1.77;;;0.75;;
52041;SDS011;38052;45.944;13.624;2023-05-14T05:33:44;1.77;;;0.90;;
52041;SDS011;38052;45.944;13.624;2023-05-14T05:36:11;1.73;;;0.90;;
52041;SDS011;38052;45.944;13.624;2023-05-14T05:38:37;6.60;;;0.85;;
52041;SDS011;38052;45.944;13.624;2023-05-14T05:41:03;3.63;;;0.88;;
52041;SDS011;38052;45.944;13.624;2023-05-14T05:43:30;1.05;;;0.70;;
52041;SDS011;38052;45.944;13.624;2023-05-14T05:45:57;1.73;;;1.15;;
52041;SDS011;38052;45.944;13.624;2023-05-14T05:48:24;3.72;;;1.20;;
52041;SDS011;38052;45.944;13.624;2023-05-14T05:50:50;1.52;;;0.63;;
52041;SDS011;38052;45.944;13.624;2023-05-14T05:53:17;2.13;;;0.80;;
52041;SDS011;38052;45.944;13.624;2023-05-14T05:55:43;1.30;;;0.68;;
52041;SDS011;38052;45.944;13.624;2023-05-14T05:58:09;2.83;;;1.08;;
52041;SDS011;38052;45.944;13.624;2023-05-14T06:00:36;2.35;;;0.63;;
52041;SDS011;38052;45.944;13.624;2023-05-14T06:03:02;1.88;;;0.85;;
52041;SDS011;38052;45.944;13.624;2023-05-14T06:05:29;2.25;;;0.80;;
52041;SDS011;38052;45.944;13.624;2023-05-14T06:07:56;1.08;;;0.40;;
52041;SDS011;38052;45.944;13.624;2023-05-14T06:10:23;2.35;;;0.70;;
52041;SDS011;38052;45.944;13.624;2023-05-14T06:12:50;0.50;;;0.30;;
52041;SDS011;38052;45.944;13.624;2023-05-14T06:15:17;0.77;;;0.30;;
52041;SDS011;38052;45.944;13.624;2023-05-14T06:17:43;1.83;;;0.40;;
52041;SDS011;38052;45.944;13.624;2023-05-14T06:20:10;0.32;;;0.15;;
52041;SDS011;38052;45.944;13.624;2023-05-14T06:22:36;0.68;;;0.30;;
52041;SDS011;38052;45.944;13.624;2023-05-14T06:25:02;1.25;;;0.55;;
52041;SDS011;38052;45.944;13.624;2023-05-14T06:27:29;2.17;;;0.50;;
52041;SDS011;38052;45.944;13.624;2023-05-14T06:29:55;2.75;;;0.68;;
52041;SDS011;38052;45.944;13.624;2023-05-14T06:32:21;1.25;;;0.75;;
52041;SDS011;38052;45.944;13.624;2023-05-14T06:34:48;1.92;;;0.38;;
52041;SDS011;38052;45.944;13.624;2023-05-14T06:37:14;3.60;;;0.70;;
52041;SDS011;38052;45.944;13.624;2023-05-14T06:39:41;1.15;;;0.50;;
52041;SDS011;38052;45.944;13.624;2023-05-14T06:42:13;1.90;;;0.45;;
52041;SDS011;38052;45.944;13.624;2023-05-14T06:44:40;1.30;;;0.30;;
52041;SDS011;38052;45.944;13.624;2023-05-14T06:47:06;1.05;;;0.80;;
52041;SDS011;38052;45.944;13.624;2023-05-14T06:49:32;0.77;;;0.30;;
52041;SDS011;38052;45.944;13.624;2023-05-14T06:51:59;3.03;;;0.40;;
52041;SDS011;38052;45.944;13.624;2023-05-14T06:54:26;1.23;;;0.43;;
52041;SDS011;38052;45.944;13.624;2023-05-14T06:56:52;0.63;;;0.25;;
52041;SDS011;38052;45.944;13.624;2023-05-14T06:59:18;2.38;;;0.45;;
52041;SDS011;38052;45.944;13.624;2023-05-14T07:01:45;0.82;;;0.40;;
52041;SDS011;38052;45.944;13.624;2023-05-14T07:04:12;1.23;;;0.40;;
52041;SDS011;38052;45.944;13.624;2023-05-14T07:06:38;0.80;;;0.20;;
52041;SDS011;38052;45.944;13.624;2023-05-14T07:09:05;0.73;;;0.25;;
52041;SDS011;38052;45.944;13.624;2023-05-14T07:11:32;1.10;;;0.40;;
52041;SDS011;38052;45.944;13.624;2023-05-14T07:13:58;0.70;;;0.30;;
52041;SDS011;38052;45.944;13.624;2023-05-14T07:16:25;1.50;;;0.30;;
52041;SDS011;38052;45.944;13.624;2023-05-14T07:18:51;0.68;;;0.20;;
52041;SDS011;38052;45.944;13.624;2023-05-14T07:21:18;2.08;;;0.50;;
52041;SDS011;38052;45.944;13.624;2023-05-14T07:23:44;2.70;;;0.20;;
52041;SDS011;38052;45.944;13.624;2023-05-14T07:26:10;1.40;;;0.35;;
52041;SDS011;38052;45.944;13.624;2023-05-14T07:28:36;1.55;;;0.30;;
52041;SDS011;38052;45.944;13.624;2023-05-14T07:31:02;2.47;;;0.30;;
52041;SDS011;38052;45.944;13.624;2023-05-14T07:33:32;3.40;;;0.50;;
52041;SDS011;38052;45.944;13.624;2023-05-14T07:36:02;2.83;;;0.20;;
52041;SDS011;38052;45.944;13.624;2023-05-14T07:38:29;1.75;;;0.50;;
52041;SDS011;38052;45.944;13.624;2023-05-14T07:40:55;0.57;;;0.28;;
52041;SDS011;38052;45.944;13.624;2023-05-14T07:43:21;1.05;;;0.60;;
52041;SDS011;38052;45.944;13.624;2023-05-14T07:45:48;2.25;;;0.43;;
52041;SDS011;38052;45.944;13.624;2023-05-14T07:48:14;0.82;;;0.30;;
52041;SDS011;38052;45.944;13.624;2023-05-14T07:50:41;2.63;;;0.40;;
52041;SDS011;38052;45.944;13.624;2023-05-14T07:53:08;2.10;;;0.20;;
52041;SDS011;38052;45.944;13.624;2023-05-14T07:55:34;1.08;;;0.22;;
52041;SDS011;38052;45.944;13.624;2023-05-14T07:58:01;0.93;;;0.20;;
52041;SDS011;38052;45.944;13.624;2023-05-14T08:00:28;1.92;;;0.57;;
52041;SDS011;38052;45.944;13.624;2023-05-14T08:02:54;1.05;;;0.60;;
52041;SDS011;38052;45.944;13.624;2023-05-14T08:05:20;3.13;;;0.40;;
52041;SDS011;38052;45.944;13.624;2023-05-14T08:07:47;0.88;;;0.30;;
52041;SDS011;38052;45.944;13.624;2023-05-14T08:10:13;0.60;;;0.40;;
52041;SDS011;38052;45.944;13.624;2023-05-14T08:12:40;1.27;;;0.40;;
52041;SDS011;38052;45.944;13.624;2023-05-14T08:15:07;2.55;;;0.60;;
52041;SDS011;38052;45.944;13.624;2023-05-14T08:17:33;1.50;;;0.50;;
52041;SDS011;38052;45.944;13.624;2023-05-14T08:19:59;2.78;;;0.65;;
52041;SDS011;38052;45.944;13.624;2023-05-14T08:22:26;2.38;;;0.65;;
52041;SDS011;38052;45.944;13.624;2023-05-14T08:24:53;1.13;;;0.20;;
52041;SDS011;38052;45.944;13.624;2023-05-14T08:27:19;1.20;;;0.40;;
52041;SDS011;38052;45.944;13.624;2023-05-14T08:29:47;1.67;;;0.80;;
52041;SDS011;38052;45.944;13.624;2023-05-14T08:32:13;2.25;;;0.60;;
52041;SDS011;38052;45.944;13.624;2023-05-14T08:34:40;1.08;;;0.40;;
52041;SDS011;38052;45.944;13.624;2023-05-14T08:37:06;1.38;;;0.40;;
52041;SDS011;38052;45.944;13.624;2023-05-14T08:39:33;1.25;;;0.40;;
52041;SDS011;38052;45.944;13.624;2023-05-14T08:41:59;0.47;;;0.20;;
52041;SDS011;38052;45.944;13.624;2023-05-14T08:44:38;0.30;;;0.20;;
52041;SDS011;38052;45.944;13.624;2023-05-14T08:47:04;0.22;;;0.10;;
52041;SDS011;38052;45.944;13.624;2023-05-14T08:49:41;0.40;;;0.17;;
52041;SDS011;38052;45.944;13.624;2023-05-14T08:52:08;0.65;;;0.30;;
52041;SDS011;38052;45.944;13.624;2023-05-14T08:54:35;0.43;;;0.10;;
52041;SDS011;38052;45.944;13.624;2023-05-14T08:57:02;0.57;;;0.10;;
52041;SDS011;38052;45.944;13.624;2023-05-14T08:59:28;0.32;;;0.10;;
52041;SDS011;38052;45.944;13.624;2023-05-14T09:01:55;0.20;;;0.15;;
52041;SDS011;38052;45.944;13.624;2023-05-14T09:04:23;0.68;;;0.10;;
52041;SDS011;38052;45.944;13.624;2023-05-14T09:06:51;0.55;;;0.17;;
52041;SDS011;38052;45.944;13.624;2023-05-14T09:09:20;1.25;;;0.20;;
52041;SDS011;38052;45.944;13.624;2023-05-14T09:11:51;1.10;;;0.20;;
52041;SDS011;38052;45.944;13.624;2023-05-14T09:14:18;0.50;;;0.20;;
52041;SDS011;38052;45.944;13.624;2023-05-14T09:16:45;1.35;;;0.50;;
52041;SDS011;38052;45.944;13.624;2023-05-14T09:19:11;4.93;;;0.40;;
52041;SDS011;38052;45.944;13.624;2023-05-14T09:21:38;2.05;;;0.30;;
52041;SDS011;38052;45.944;13.624;2023-05-14T09:24:04;1.17;;;0.25;;
52041;SDS011;38052;45.944;13.624;2023-05-14T09:26:34;1.75;;;0.30;;
52041;SDS011;38052;45.944;13.624;2023-05-14T09:29:00;1.40;;;0.30;;
52041;SDS011;38052;45.944;13.624;2023-05-14T09:31:31;2.20;;;0.32;;
52041;SDS011;38052;45.944;13.624;2023-05-14T09:33:58;2.58;;;0.50;;
52041;SDS011;38052;45.944;13.624;2023-05-14T09:36:25;3.38;;;1.45;;
52041;SDS011;38052;45.944;13.624;2023-05-14T09:38:55;2.33;;;1.40;;
52041;SDS011;38052;45.944;13.624;2023-05-14T09:41:21;6.45;;;1.80;;
52041;SDS011;38052;45.944;13.624;2023-05-14T09:43:49;1.30;;;0.43;;
52041;SDS011;38052;45.944;13.624;2023-05-14T09:46:15;1.88;;;0.90;;
52041;SDS011;38052;45.944;13.624;2023-05-14T09:48:42;2.05;;;0.85;;
52041;SDS011;38052;45.944;13.624;2023-05-14T09:51:09;2.00;;;0.85;;
52041;SDS011;38052;45.944;13.624;2023-05-14T09:53:35;1.58;;;0.28;;
52041;SDS011;38052;45.944;13.624;2023-05-14T09:56:02;2.85;;;0.30;;
52041;SDS011;38052;45.944;13.624;2023-05-14T09:58:29;0.98;;;0.20;;
52041;SDS011;38052;45.944;13.624;2023-05-14T10:00:56;0.50;;;0.10;;
52041;SDS011;38052;45.944;13.624;2023-05-14T10:03:24;0.77;;;0.20;;
52041;SDS011;38052;45.944;13.624;2023-05-14T10:05:50;0.22;;;0.10;;
52041;SDS011;38052;45.944;13.624;2023-05-14T10:08:24;0.15;;;0.05;;
52041;SDS011;38052;45.944;13.624;2023-05-14T10:10:54;0.60;;;0.10;;
52041;SDS011;38052;45.944;13.624;2023-05-14T10:13:26;0.40;;;0.10;;
52041;SDS011;38052;45.944;13.624;2023-05-14T10:15:56;0.85;;;0.20;;
52041;SDS011;38052;45.944;13.624;2023-05-14T10:18:25;0.40;;;0.10;;
52041;SDS011;38052;45.944;13.624;2023-05-14T10:20:56;0.70;;;0.35;;
52041;SDS011;38052;45.944;13.624;2023-05-14T10:23:26;0.20;;;0.10;;
52041;SDS011;38052;45.944;13.624;2023-05-14T10:25:52;1.30;;;0.10;;
52041;SDS011;38052;45.944;13.624;2023-05-14T10:28:19;1.05;;;0.10;;
52041;SDS011;38052;45.944;13.624;2023-05-14T10:30:46;0.25;;;0.10;;
52041;SDS011;38052;45.944;13.624;2023-05-14T10:33:14;0.10;;;0.00;;
52041;SDS011;38052;45.944;13.624;2023-05-14T10:35:55;0.28;;;0.08;;
52041;SDS011;38052;45.944;13.624;2023-05-14T10:38:22;0.60;;;0.10;;
52041;SDS011;38052;45.944;13.624;2023-05-14T10:40:53;1.40;;;0.60;;
52041;SDS011;38052;45.944;13.624;2023-05-14T10:43:20;1.02;;;0.47;;
52041;SDS011;38052;45.944;13.624;2023-05-14T10:45:46;0.30;;;0.10;;
52041;SDS011;38052;45.944;13.624;2023-05-14T10:48:13;0.35;;;0.10;;
52041;SDS011;38052;45.944;13.624;2023-05-14T10:50:40;0.22;;;0.10;;
52041;SDS011;38052;45.944;13.624;2023-05-14T10:53:09;0.32;;;0.10;;
52041;SDS011;38052;45.944;13.624;2023-05-14T10:55:35;0.40;;;0.10;;
52041;SDS011;38052;45.944;13.624;2023-05-14T10:58:03;1.27;;;0.10;;
52041;SDS011;38052;45.944;13.624;2023-05-14T11:00:29;2.47;;;0.20;;
52041;SDS011;38052;45.944;13.624;2023-05-14T11:02:58;0.43;;;0.10;;
52041;SDS011;38052;45.944;13.624;2023-05-14T11:05:25;1.45;;;0.20;;
52041;SDS011;38052;45.944;13.624;2023-05-14T11:07:51;0.40;;;0.08;;
52041;SDS011;38052;45.944;13.624;2023-05-14T11:10:21;1.05;;;0.13;;
52041;SDS011;38052;45.944;13.624;2023-05-14T11:12:49;0.43;;;0.10;;
52041;SDS011;38052;45.944;13.624;2023-05-14T11:15:17;0.47;;;0.10;;
52041;SDS011;38052;45.944;13.624;2023-05-14T11:17:44;0.30;;;0.10;;
52041;SDS011;38052;45.944;13.624;2023-05-14T11:20:11;0.57;;;0.20;;
52041;SDS011;38052;45.944;13.624;2023-05-14T11:22:38;1.83;;;0.20;;
52041;SDS011;38052;45.944;13.624;2023-05-14T11:25:04;0.55;;;0.22;;
52041;SDS011;38052;45.944;13.624;2023-05-14T11:27:32;1.08;;;0.40;;
52041;SDS011;38052;45.944;13.624;2023-05-14T11:29:59;7.18;;;1.30;;
52041;SDS011;38052;45.944;13.624;2023-05-14T11:32:26;1.55;;;0.68;;
52041;SDS011;38052;45.944;13.624;2023-05-14T11:34:53;1.42;;;0.75;;
52041;SDS011;38052;45.944;13.624;2023-05-14T11:37:19;2.38;;;0.50;;
52041;SDS011;38052;45.944;13.624;2023-05-14T11:39:49;2.30;;;0.63;;
52041;SDS011;38052;45.944;13.624;2023-05-14T11:42:16;1.58;;;0.50;;
52041;SDS011;38052;45.944;13.624;2023-05-14T11:44:45;3.92;;;1.00;;
52041;SDS011;38052;45.944;13.624;2023-05-14T11:47:11;1.30;;;0.70;;
52041;SDS011;38052;45.944;13.624;2023-05-14T11:49:39;2.10;;;0.70;;
52041;SDS011;38052;45.944;13.624;2023-05-14T11:52:05;4.00;;;0.65;;
52041;SDS011;38052;45.944;13.624;2023-05-14T11:54:32;1.45;;;0.60;;
52041;SDS011;38052;45.944;13.624;2023-05-14T11:56:59;2.80;;;0.40;;
52041;SDS011;38052;45.944;13.624;2023-05-14T11:59:27;1.33;;;0.43;;
52041;SDS011;38052;45.944;13.624;2023-05-14T12:01:54;0.68;;;0.40;;
52041;SDS011;38052;45.944;13.624;2023-05-14T12:04:20;1.65;;;0.65;;
52041;SDS011;38052;45.944;13.624;2023-05-14T12:06:50;0.43;;;0.22;;
52041;SDS011;38052;45.944;13.624;2023-05-14T12:09:17;6.95;;;0.75;;
52041;SDS011;38052;45.944;13.624;2023-05-14T12:11:45;1.60;;;0.47;;
52041;SDS011;38052;45.944;13.624;2023-05-14T12:14:21;3.03;;;0.65;;
52041;SDS011;38052;45.944;13.624;2023-05-14T12:16:48;1.80;;;0.70;;
52041;SDS011;38052;45.944;13.624;2023-05-14T12:19:18;1.13;;;0.30;;
52041;SDS011;38052;45.944;13.624;2023-05-14T12:21:47;1.20;;;0.50;;
52041;SDS011;38052;45.944;13.624;2023-05-14T12:24:17;1.25;;;0.68;;
52041;SDS011;38052;45.944;13.624;2023-05-14T12:26:44;4.20;;;0.98;;
52041;SDS011;38052;45.944;13.624;2023-05-14T12:29:12;1.95;;;0.60;;
52041;SDS011;38052;45.944;13.624;2023-05-14T12:31:43;2.85;;;0.90;;
52041;SDS011;38052;45.944;13.624;2023-05-14T12:34:10;2.08;;;1.00;;
52041;SDS011;38052;45.944;13.624;2023-05-14T12:36:37;1.42;;;0.47;;
52041;SDS011;38052;45.944;13.624;2023-05-14T12:39:04;4.65;;;0.55;;
52041;SDS011;38052;45.944;13.624;2023-05-14T12:41:30;1.95;;;0.55;;
52041;SDS011;38052;45.944;13.624;2023-05-14T12:43:57;1.50;;;0.63;;
52041;SDS011;38052;45.944;13.624;2023-05-14T12:46:24;1.33;;;0.60;;
52041;SDS011;38052;45.944;13.624;2023-05-14T12:48:52;1.25;;;0.40;;
52041;SDS011;38052;45.944;13.624;2023-05-14T12:51:18;1.23;;;0.52;;
52041;SDS011;38052;45.944;13.624;2023-05-14T12:53:44;1.73;;;0.90;;
52041;SDS011;38052;45.944;13.624;2023-05-14T12:56:11;2.45;;;0.60;;
52041;SDS011;38052;45.944;13.624;2023-05-14T12:58:37;4.55;;;1.40;;
52041;SDS011;38052;45.944;13.624;2023-05-14T13:01:04;2.78;;;0.60;;
52041;SDS011;38052;45.944;13.624;2023-05-14T13:03:30;0.68;;;0.30;;
52041;SDS011;38052;45.944;13.624;2023-05-14T13:05:56;0.57;;;0.28;;
52041;SDS011;38052;45.944;13.624;2023-05-14T13:08:23;1.25;;;0.60;;
52041;SDS011;38052;45.944;13.624;2023-05-14T13:10:50;0.60;;;0.28;;
52041;SDS011;38052;45.944;13.624;2023-05-14T13:13:16;6.10;;;0.40;;
52041;SDS011;38052;45.944;13.624;2023-05-14T13:15:43;2.00;;;0.45;;
52041;SDS011;38052;45.944;13.624;2023-05-14T13:18:11;1.83;;;0.40;;
52041;SDS011;38052;45.944;13.624;2023-05-14T13:20:37;1.60;;;0.30;;
52041;SDS011;38052;45.944;13.624;2023-05-14T13:23:04;1.70;;;0.50;;
52041;SDS011;38052;45.944;13.624;2023-05-14T13:25:30;0.90;;;0.35;;
52041;SDS011;38052;45.944;13.624;2023-05-14T13:27:56;0.65;;;0.20;;
52041;SDS011;38052;45.944;13.624;2023-05-14T13:30:23;0.40;;;0.20;;
52041;SDS011;38052;45.944;13.624;2023-05-14T13:32:49;1.48;;;0.25;;
52041;SDS011;38052;45.944;13.624;2023-05-14T13:35:15;0.50;;;0.20;;
52041;SDS011;38052;45.944;13.624;2023-05-14T13:37:42;2.60;;;0.20;;
52041;SDS011;38052;45.944;13.624;2023-05-14T13:40:08;1.20;;;0.30;;
52041;SDS011;38052;45.944;13.624;2023-05-14T13:42:35;2.67;;;1.20;;
52041;SDS011;38052;45.944;13.624;2023-05-14T13:45:04;2.50;;;1.10;;
52041;SDS011;38052;45.944;13.624;2023-05-14T13:47:30;1.30;;;0.55;;
52041;SDS011;38052;45.944;13.624;2023-05-14T13:49:57;1.77;;;0.65;;
52041;SDS011;38052;45.944;13.624;2023-05-14T13:52:24;0.60;;;0.30;;
52041;SDS011;38052;45.944;13.624;2023-05-14T13:54:50;1.65;;;0.73;;
52041;SDS011;38052;45.944;13.624;2023-05-14T13:57:17;1.10;;;0.30;;
52041;SDS011;38052;45.944;13.624;2023-05-14T13:59:44;1.85;;;0.40;;
52041;SDS011;38052;45.944;13.624;2023-05-14T14:02:11;1.20;;;0.20;;
52041;SDS011;38052;45.944;13.624;2023-05-14T14:04:38;2.47;;;0.50;;
52041;SDS011;38052;45.944;13.624;2023-05-14T14:07:05;1.38;;;0.20;;
52041;SDS011;38052;45.944;13.624;2023-05-14T14:09:33;2.20;;;0.20;;
52041;SDS011;38052;45.944;13.624;2023-05-14T14:12:04;1.75;;;0.32;;
52041;SDS011;38052;45.944;13.624;2023-05-14T14:14:30;1.05;;;0.10;;
52041;SDS011;38052;45.944;13.624;2023-05-14T14:16:56;2.13;;;0.30;;
52041;SDS011;38052;45.944;13.624;2023-05-14T14:19:22;0.82;;;0.10;;
52041;SDS011;38052;45.944;13.624;2023-05-14T14:21:49;0.80;;;0.13;;
52041;SDS011;38052;45.944;13.624;2023-05-14T14:24:15;0.75;;;0.38;;
52041;SDS011;38052;45.944;13.624;2023-05-14T14:26:42;0.52;;;0.10;;
52041;SDS011;38052;45.944;13.624;2023-05-14T14:29:09;0.40;;;0.08;;
52041;SDS011;38052;45.944;13.624;2023-05-14T14:31:36;0.30;;;0.00;;
52041;SDS011;38052;45.944;13.624;2023-05-14T14:34:02;1.75;;;0.10;;
52041;SDS011;38052;45.944;13.624;2023-05-14T14:36:28;1.88;;;0.60;;
52041;SDS011;38052;45.944;13.624;2023-05-14T14:38:55;0.77;;;0.25;;